Time;durP1;ratioP1;P1;durP2;ratioP2;P2;SDS_P1;SDS_P2;PMS_P1;PMS_P2;Temp;Humidity;BMP_temperature;BMP_pressure;BME280_temperature;BME280_humidity;BME280_pressure;Samples;Min_cycle;Max_cycle;Signal;HPM_P1;HPM_P2
2022/06/19 00:01:28;;;;;;;43.92;40.53;;;;;;;13.90;100.00;101496.00;5092808;28;20055;-84
2022/06/19 00:04:02;;;;;;;41.00;37.63;;;;;;;13.92;100.00;101500.09;5091520;28;20043;-81
2022/06/19 00:06:30;;;;;;;38.45;35.30;;;;;;;13.64;100.00;101502.19;5093297;28;20058;-82
2022/06/19 00:09:00;;;;;;;43.50;39.88;;;;;;;13.91;100.00;101490.44;5092900;28;20130;-81
2022/06/19 00:11:27;;;;;;;51.20;47.42;;;;;;;13.69;100.00;101492.53;5092904;28;20052;-83
2022/06/19 00:13:57;;;;;;;37.92;34.95;;;;;;;14.10;100.00;101495.94;5090204;28;20538;-83
2022/06/19 00:16:24;;;;;;;38.22;35.17;;;;;;;13.70;100.00;101494.16;5091035;28;20048;-82
2022/06/19 00:18:52;;;;;;;40.42;36.83;;;;;;;13.97;100.00;101497.59;5090651;28;20052;-83
2022/06/19 00:21:21;;;;;;;41.00;37.55;;;;;;;13.83;100.00;101500.50;5092596;28;20125;-83
2022/06/19 00:23:48;;;;;;;40.35;37.15;;;;;;;13.92;100.00;101497.44;5092275;28;20048;-81
2022/06/19 00:26:21;;;;;;;41.50;37.95;;;;;;;14.04;100.00;101502.97;5092119;28;20051;-82
2022/06/19 00:28:49;;;;;;;41.03;37.35;;;;;;;14.07;100.00;101499.88;5091507;28;20052;-82
2022/06/19 00:31:21;;;;;;;39.53;35.92;;;;;;;14.05;100.00;101499.25;5092758;28;20105;-83
2022/06/19 00:33:48;;;;;;;41.85;38.05;;;;;;;13.75;100.00;101504.25;5094471;28;20067;-82
2022/06/19 00:36:20;;;;;;;44.72;40.92;;;;;;;14.13;100.00;101501.69;5095982;28;20051;-83
2022/06/19 00:38:55;;;;;;;48.15;44.25;;;;;;;14.05;100.00;101501.91;5095830;28;20056;-81
2022/06/19 00:41:23;;;;;;;44.38;40.47;;;;;;;13.90;100.00;101506.69;5095638;28;20120;-81
2022/06/19 00:43:59;;;;;;;42.95;39.60;;;;;;;14.12;100.00;101508.06;5095222;28;20048;-84
2022/06/19 00:46:50;;;;;;;43.03;39.30;;;;;;;13.87;100.00;101512.44;5094220;28;20052;-83
2022/06/19 00:49:23;;;;;;;55.20;51.10;;;;;;;13.89;100.00;101511.22;5094825;28;20055;-80
2022/06/19 00:51:59;;;;;;;41.25;37.78;;;;;;;13.29;100.00;101518.44;5093363;28;20048;-83
2022/06/19 00:54:32;;;;;;;41.55;37.72;;;;;;;13.28;100.00;101517.59;5095157;28;20062;-80
2022/06/19 00:57:00;;;;;;;45.38;41.47;;;;;;;13.65;100.00;101514.53;5096025;28;20048;-81
2022/06/19 00:59:35;;;;;;;48.15;44.00;;;;;;;13.66;100.00;101516.97;5093935;28;20039;-81
2022/06/19 01:02:03;;;;;;;53.80;49.67;;;;;;;13.79;100.00;101518.00;5095246;28;20481;-83
2022/06/19 01:04:36;;;;;;;45.45;41.95;;;;;;;13.51;100.00;101519.84;5095927;28;20122;-82
2022/06/19 01:07:05;;;;;;;40.65;37.25;;;;;;;13.46;100.00;101513.50;5076304;28;20468;-80
2022/06/19 01:09:38;;;;;;;45.70;41.38;;;;;;;13.34;100.00;101520.47;5095841;28;20112;-81
2022/06/19 01:12:08;;;;;;;43.97;40.55;;;;;;;13.61;100.00;101522.09;5092691;28;20465;-83
2022/06/19 01:14:38;;;;;;;43.15;39.53;;;;;;;13.40;100.00;101519.66;5096277;28;20047;-81
2022/06/19 01:17:06;;;;;;;42.92;39.10;;;;;;;13.36;100.00;101518.41;5095317;28;20374;-81
2022/06/19 01:19:39;;;;;;;42.58;38.60;;;;;;;13.56;100.00;101526.44;5095435;28;20050;-84
2022/06/19 01:22:10;;;;;;;40.67;37.08;;;;;;;13.37;100.00;101528.06;5095091;28;20370;-80
2022/06/19 01:24:56;;;;;;;38.85;35.05;;;;;;;13.48;100.00;101522.13;5080098;28;20055;-83
2022/06/19 01:30:13;;;;;;;34.38;31.40;;;;;;;13.36;100.00;101524.56;5091562;28;20043;-81
2022/06/19 01:32:47;;;;;;;36.65;33.25;;;;;;;13.35;100.00;101527.47;5095225;28;20044;-84
2022/06/19 01:35:21;;;;;;;51.80;47.28;;;;;;;13.40;100.00;101519.66;5094860;28;20077;-81
2022/06/19 01:37:48;;;;;;;40.42;37.00;;;;;;;13.43;100.00;101516.56;5083149;28;20495;-82
2022/06/19 01:40:21;;;;;;;40.70;37.38;;;;;;;13.49;100.00;101531.75;5095273;28;20075;-83
2022/06/19 01:42:50;;;;;;;43.25;39.05;;;;;;;13.48;100.00;101522.94;5094575;28;20064;-81
2022/06/19 01:45:26;;;;;;;42.33;38.53;;;;;;;13.16;100.00;101526.38;5094894;28;20048;-82
2022/06/19 01:47:55;;;;;;;44.80;41.40;;;;;;;13.26;100.00;101518.84;5089504;28;20137;-84
2022/06/19 01:50:27;;;;;;;40.92;37.60;;;;;;;12.98;100.00;101526.94;5095092;28;20456;-84
2022/06/19 01:53:04;;;;;;;40.03;36.72;;;;;;;13.07;100.00;101523.06;5085296;28;20461;-82
2022/06/19 01:55:40;;;;;;;43.95;40.25;;;;;;;13.04;100.00;101520.81;5094343;28;20491;-82
2022/06/19 01:58:10;;;;;;;38.00;34.60;;;;;;;13.19;100.00;101532.13;5094424;28;20050;-81
2022/06/19 02:00:39;;;;;;;38.95;35.40;;;;;;;13.17;100.00;101520.03;5215973;22;20117;-83
2022/06/19 02:03:09;;;;;;;38.40;35.20;;;;;;;13.22;100.00;101530.88;5056697;28;20571;-83
2022/06/19 02:05:38;;;;;;;38.03;34.85;;;;;;;13.08;100.00;101540.72;5054794;28;20067;-84
2022/06/19 02:08:06;;;;;;;46.20;42.38;;;;;;;13.05;100.00;101530.47;5056684;28;20049;-83
2022/06/19 02:10:40;;;;;;;43.65;39.42;;;;;;;12.96;100.00;101540.50;5063938;28;20049;-82
2022/06/19 02:13:14;;;;;;;37.28;34.10;;;;;;;12.74;100.00;101536.34;5053441;28;20053;-83
2022/06/19 02:15:43;;;;;;;35.10;32.13;;;;;;;12.68;100.00;101537.97;5059825;28;20049;-81
2022/06/19 02:18:15;;;;;;;37.60;34.40;;;;;;;12.93;100.00;101537.41;5059077;28;20060;-81
2022/06/19 02:20:42;;;;;;;38.38;35.05;;;;;;;12.63;100.00;101542.25;5055869;28;20055;-80
2022/06/19 02:23:09;;;;;;;40.45;36.63;;;;;;;12.56;100.00;101543.03;5061244;28;20049;-81
2022/06/19 02:25:41;;;;;;;35.88;32.78;;;;;;;12.27;100.00;101545.97;5053742;28;20052;-83
2022/06/19 02:28:09;;;;;;;38.00;34.70;;;;;;;12.25;100.00;101548.00;5058998;28;20048;-80
2022/06/19 02:30:36;;;;;;;35.67;32.55;;;;;;;12.07;100.00;101537.84;5057055;28;20040;-84
2022/06/19 02:33:05;;;;;;;36.83;33.70;;;;;;;12.24;100.00;101538.38;5063113;28;20129;-80
2022/06/19 02:35:32;;;;;;;38.03;34.60;;;;;;;12.60;100.00;101540.78;5060561;28;20065;-81
2022/06/19 02:37:59;;;;;;;35.53;32.63;;;;;;;12.90;100.00;101538.63;5057447;28;20052;-81
2022/06/19 02:40:35;;;;;;;35.35;32.00;;;;;;;12.81;100.00;101542.50;5063567;28;20060;-81
2022/06/19 02:43:10;;;;;;;33.50;30.50;;;;;;;12.76;100.00;101543.09;5055184;28;20444;-83
2022/06/19 02:45:39;;;;;;;33.60;30.45;;;;;;;12.77;100.00;101544.75;5053219;28;20045;-80
2022/06/19 02:48:07;;;;;;;38.33;33.25;;;;;;;12.87;100.00;101546.22;5055670;28;20619;-84
2022/06/19 02:50:35;;;;;;;31.60;29.17;;;;;;;12.79;100.00;101553.34;5052709;28;20059;-83
2022/06/19 02:53:02;;;;;;;34.28;31.50;;;;;;;12.85;100.00;101549.06;5053327;28;20045;-83
2022/06/19 02:55:29;;;;;;;31.98;29.48;;;;;;;12.77;100.00;101550.09;5052886;28;20477;-80
2022/06/19 02:57:56;;;;;;;33.00;30.40;;;;;;;12.94;100.00;101552.38;5054901;28;20126;-81
2022/06/19 03:00:27;;;;;;;33.70;31.08;;;;;;;12.44;100.00;101549.94;5052584;28;20056;-81
2022/06/19 03:02:56;;;;;;;35.38;32.38;;;;;;;12.69;100.00;101554.78;5003272;28;20399;-82
2022/06/19 03:05:26;;;;;;;36.45;33.80;;;;;;;12.66;100.00;101555.16;4999570;28;20050;-80
2022/06/19 03:07:53;;;;;;;33.58;30.83;;;;;;;11.93;100.00;101555.59;5006965;28;20489;-82
2022/06/19 03:10:21;;;;;;;36.72;33.67;;;;;;;12.60;100.00;101554.94;5011058;28;20065;-81
2022/06/19 03:12:48;;;;;;;33.67;31.17;;;;;;;12.40;100.00;101554.00;5004559;28;20058;-82
2022/06/19 03:15:16;;;;;;;37.05;33.92;;;;;;;12.88;100.00;101558.50;5005189;28;20047;-83
2022/06/19 03:17:45;;;;;;;33.58;30.98;;;;;;;13.15;100.00;101554.88;5008379;28;20084;-81
2022/06/19 03:20:14;;;;;;;34.47;31.88;;;;;;;13.02;100.00;101550.34;5003160;28;20050;-82
2022/06/19 03:22:41;;;;;;;34.53;31.73;;;;;;;13.11;100.00;101556.31;5003856;28;20087;-80
2022/06/19 03:25:08;;;;;;;34.58;31.88;;;;;;;13.35;100.00;101554.97;5002570;28;20395;-81
2022/06/19 03:27:36;;;;;;;35.10;32.13;;;;;;;13.28;100.00;101557.63;5011278;28;20061;-80
2022/06/19 03:30:04;;;;;;;36.08;32.90;;;;;;;13.43;100.00;101549.41;5008553;28;20080;-82
2022/06/19 03:32:31;;;;;;;33.85;31.17;;;;;;;13.31;100.00;101548.38;5012356;28;20046;-81
2022/06/19 03:34:59;;;;;;;34.22;31.52;;;;;;;13.42;100.00;101553.09;5009544;28;20513;-80
2022/06/19 03:37:26;;;;;;;38.17;34.97;;;;;;;13.49;100.00;101553.94;5009731;28;20046;-82
2022/06/19 03:39:53;;;;;;;36.20;32.92;;;;;;;13.65;100.00;101551.91;5004043;28;20483;-81
2022/06/19 03:42:20;;;;;;;34.03;31.33;;;;;;;13.74;100.00;101550.66;5009880;28;20397;-80
2022/06/19 03:44:47;;;;;;;36.53;33.53;;;;;;;13.93;100.00;101549.81;5009818;28;20073;-80
2022/06/19 03:47:19;;;;;;;37.58;34.55;;;;;;;14.09;100.00;101547.72;5006257;28;20486;-81
2022/06/19 03:49:46;;;;;;;35.90;33.20;;;;;;;14.09;100.00;101551.22;5003945;28;20078;-83
2022/06/19 03:52:16;;;;;;;34.67;31.80;;;;;;;14.28;100.00;101564.72;5008885;28;20050;-84
2022/06/19 03:54:44;;;;;;;34.30;31.70;;;;;;;14.28;100.00;101559.38;5003141;28;20208;-82
2022/06/19 03:57:13;;;;;;;35.08;32.10;;;;;;;14.34;100.00;101563.88;5008116;28;20450;-81
2022/06/19 03:59:40;;;;;;;34.45;31.95;;;;;;;14.31;100.00;101548.28;5007902;28;20053;-83
2022/06/19 04:02:10;;;;;;;37.63;34.63;;;;;;;14.51;100.00;101561.59;3643821;28;10000521;-84
2022/06/19 04:04:40;;;;;;;38.42;35.17;;;;;;;14.68;100.00;101565.47;5048363;28;20060;-82
2022/06/19 04:07:07;;;;;;;35.92;33.20;;;;;;;14.71;100.00;101564.22;5058013;28;20040;-81
2022/06/19 04:09:36;;;;;;;38.55;35.50;;;;;;;14.73;100.00;101562.13;5055002;28;20048;-81
2022/06/19 04:12:03;;;;;;;40.60;37.38;;;;;;;14.80;100.00;101562.94;5050334;28;20045;-81
2022/06/19 04:14:30;;;;;;;39.28;35.80;;;;;;;14.79;100.00;101564.78;5045885;28;20060;-83
2022/06/19 04:16:57;;;;;;;38.33;35.40;;;;;;;14.73;100.00;101568.28;5053674;28;20049;-81
2022/06/19 04:19:27;;;;;;;38.55;35.75;;;;;;;15.09;100.00;101567.69;5054478;28;20067;-83
2022/06/19 04:21:53;;;;;;;36.80;33.92;;;;;;;15.11;100.00;101571.00;5053693;28;20501;-81
2022/06/19 04:24:21;;;;;;;36.67;34.05;;;;;;;15.16;100.00;101569.50;5056206;28;20049;-80
2022/06/19 04:26:51;;;;;;;39.45;36.28;;;;;;;15.33;100.00;101570.63;5051955;28;20059;-81
2022/06/19 04:29:18;;;;;;;37.03;34.22;;;;;;;15.44;100.00;101566.47;5053453;28;20049;-81
2022/06/19 04:31:45;;;;;;;36.60;34.00;;;;;;;15.46;100.00;101564.38;5057886;28;20110;-85
2022/06/19 04:34:12;;;;;;;36.40;33.45;;;;;;;15.67;100.00;101568.53;5065026;28;20068;-83
2022/06/19 04:36:40;;;;;;;35.40;32.63;;;;;;;15.75;100.00;101563.75;5058504;28;20067;-83
2022/06/19 04:39:07;;;;;;;36.45;33.30;;;;;;;15.63;100.00;101559.31;5060268;28;20048;-83
2022/06/19 04:41:37;;;;;;;35.28;32.83;;;;;;;16.11;100.00;101556.81;5050937;28;20049;-83
2022/06/19 04:44:08;;;;;;;33.35;30.67;;;;;;;15.70;100.00;101562.75;5051457;28;20359;-84
2022/06/19 04:46:35;;;;;;;33.67;31.10;;;;;;;15.95;100.00;101552.03;5052191;28;20050;-81
2022/06/19 04:49:03;;;;;;;34.33;31.55;;;;;;;16.38;100.00;101560.03;5055900;28;20481;-81
2022/06/19 04:51:31;;;;;;;34.10;31.15;;;;;;;16.42;100.00;101563.06;5053338;28;20090;-81
2022/06/19 04:53:58;;;;;;;33.90;31.30;;;;;;;16.72;100.00;101555.88;5048894;28;20056;-83
2022/06/19 04:56:26;;;;;;;32.67;30.17;;;;;;;16.67;100.00;101550.41;5053168;28;20048;-80
2022/06/19 04:58:54;;;;;;;33.63;31.25;;;;;;;16.83;100.00;101556.22;5056516;28;20063;-83
2022/06/19 05:01:26;;;;;;;35.53;32.53;;;;;;;17.25;100.00;101550.88;5052355;28;20393;-83
2022/06/19 05:03:55;;;;;;;36.95;34.13;;;;;;;17.53;100.00;101553.72;5054011;28;20481;-84
2022/06/19 05:06:23;;;;;;;36.10;33.58;;;;;;;17.55;100.00;101548.94;5054796;28;20045;-80
2022/06/19 05:08:52;;;;;;;36.67;34.17;;;;;;;17.36;100.00;101550.06;5059492;28;20041;-84
2022/06/19 05:11:19;;;;;;;35.10;32.90;;;;;;;17.17;100.00;101560.88;5039595;28;20398;-85
2022/06/19 05:13:46;;;;;;;36.20;33.85;;;;;;;17.14;100.00;101563.19;5058313;28;20057;-83
2022/06/19 05:16:17;;;;;;;39.30;36.17;;;;;;;17.60;100.00;101559.78;5058306;28;20045;-81
2022/06/19 05:18:46;;;;;;;36.30;33.30;;;;;;;17.82;100.00;101557.38;5053889;28;20107;-81
2022/06/19 05:21:15;;;;;;;36.70;34.10;;;;;;;18.07;100.00;101550.94;5055720;28;20045;-83
2022/06/19 05:23:47;;;;;;;36.40;33.65;;;;;;;18.36;100.00;101559.06;5053837;28;20471;-81
2022/06/19 05:26:17;;;;;;;36.53;33.90;;;;;;;18.43;100.00;101552.53;5055151;28;20052;-81
2022/06/19 05:28:45;;;;;;;39.10;36.05;;;;;;;18.70;100.00;101549.28;5054311;28;20045;-81
2022/06/19 05:31:12;;;;;;;37.70;34.88;;;;;;;18.80;100.00;101554.06;5054151;28;20440;-83
2022/06/19 05:33:39;;;;;;;38.75;35.72;;;;;;;18.90;100.00;101556.94;5045023;28;20049;-83
2022/06/19 05:36:11;;;;;;;39.38;36.38;;;;;;;19.46;100.00;101552.53;5061380;28;20393;-84
2022/06/19 05:38:38;;;;;;;36.97;34.13;;;;;;;19.33;100.00;101553.66;5060035;28;20041;-84
2022/06/19 05:41:05;;;;;;;35.53;32.92;;;;;;;19.38;100.00;101550.25;5045094;28;20052;-83
2022/06/19 05:43:36;;;;;;;36.80;33.92;;;;;;;19.62;100.00;101553.59;5052599;28;20045;-81
2022/06/19 05:46:22;;;;;;;38.95;36.00;;;;;;;19.70;100.00;101549.69;5058314;28;20477;-82
2022/06/19 05:48:50;;;;;;;40.92;38.03;;;;;;;19.75;100.00;101549.75;5054728;28;20428;-84
2022/06/19 05:51:21;;;;;;;39.58;36.80;;;;;;;20.10;100.00;101546.75;5037894;28;20038;-83
2022/06/19 05:53:52;;;;;;;38.65;35.63;;;;;;;20.09;100.00;101540.56;5055094;28;20060;-85
2022/06/19 05:56:19;;;;;;;39.40;36.38;;;;;;;20.24;100.00;101547.19;5049072;28;20053;-83
2022/06/19 05:58:49;;;;;;;39.92;36.92;;;;;;;20.32;100.00;101542.19;5039826;28;20052;-83
2022/06/19 06:01:18;;;;;;;38.83;36.10;;;;;;;20.35;100.00;101547.06;5054278;28;20478;-83
2022/06/19 06:03:50;;;;;;;39.20;35.90;;;;;;;20.63;100.00;101542.56;5071050;28;20099;-83
2022/06/19 06:06:20;;;;;;;38.43;35.60;;;;;;;20.71;100.00;101541.31;5061634;28;20048;-82
2022/06/19 06:08:47;;;;;;;36.75;34.35;;;;;;;20.97;100.00;101534.31;5060108;28;20045;-84
2022/06/19 06:11:14;;;;;;;34.05;31.65;;;;;;;20.93;100.00;101533.97;5055192;28;20081;-82
2022/06/19 06:13:42;;;;;;;32.83;30.58;;;;;;;21.24;100.00;101531.53;5061176;28;20040;-83
2022/06/19 06:16:11;;;;;;;36.47;33.72;;;;;;;20.89;100.00;101524.78;5051937;28;20053;-83
2022/06/19 06:18:41;;;;;;;42.83;38.85;;;;;;;21.14;100.00;101528.78;5061180;28;20404;-84
2022/06/19 06:21:13;;;;;;;35.60;33.00;;;;;;;21.40;100.00;101521.72;5056327;28;20057;-83
2022/06/19 06:23:44;;;;;;;33.20;30.70;;;;;;;21.46;100.00;101518.00;5054084;28;20049;-84
2022/06/19 06:26:15;;;;;;;36.10;32.97;;;;;;;21.73;100.00;101518.72;5054505;28;20057;-82
2022/06/19 06:28:45;;;;;;;30.45;27.98;;;;;;;21.77;100.00;101515.50;5052253;28;20056;-83
2022/06/19 06:31:13;;;;;;;31.80;29.00;;;;;;;21.97;100.00;101512.91;5054524;28;20118;-82
2022/06/19 06:33:42;;;;;;;31.13;28.92;;;;;;;22.31;100.00;101516.03;5054797;28;20548;-84
2022/06/19 06:36:12;;;;;;;31.13;29.02;;;;;;;22.58;100.00;101520.47;5054285;28;20055;-83
2022/06/19 06:38:39;;;;;;;33.60;30.95;;;;;;;22.64;100.00;101511.28;5054088;28;20075;-81
2022/06/19 06:41:09;;;;;;;31.40;28.67;;;;;;;22.32;100.00;101511.44;5054581;28;20061;-84
2022/06/19 06:43:38;;;;;;;31.88;29.27;;;;;;;22.86;100.00;101513.75;5054485;28;20053;-82
2022/06/19 06:46:06;;;;;;;31.90;29.15;;;;;;;22.91;100.00;101518.38;5061238;28;20122;-82
2022/06/19 06:48:34;;;;;;;31.98;28.58;;;;;;;22.93;100.00;101514.28;5056137;28;20049;-82
2022/06/19 06:51:06;;;;;;;32.75;29.77;;;;;;;23.24;100.00;101509.72;5052769;28;20048;-83
2022/06/19 06:53:33;;;;;;;28.55;26.23;;;;;;;23.46;100.00;101514.84;5055485;28;20056;-83
2022/06/19 06:56:00;;;;;;;37.40;34.10;;;;;;;23.97;100.00;101511.25;5054884;28;20059;-83
2022/06/19 06:58:29;;;;;;;57.00;51.30;;;;;;;24.08;100.00;101518.25;5053662;28;20053;-84
2022/06/19 07:00:55;;;;;;;53.92;50.03;;;;;;;24.08;100.00;101518.25;5037036;28;20413;-83
2022/06/19 07:03:23;;;;;;;61.80;56.33;;;;;;;23.77;100.00;101512.13;5047569;28;20466;-82
2022/06/19 07:05:51;;;;;;;60.13;55.08;;;;;;;24.03;100.00;101522.91;5052078;28;20053;-85
2022/06/19 07:08:18;;;;;;;57.60;52.70;;;;;;;23.86;100.00;101515.88;5055526;28;20051;-86
2022/06/19 07:10:45;;;;;;;57.05;52.25;;;;;;;24.04;100.00;101527.22;5067963;28;20048;-83
2022/06/19 07:13:12;;;;;;;56.92;52.22;;;;;;;24.20;100.00;101532.31;5056845;28;20044;-83
2022/06/19 07:15:42;;;;;;;50.15;46.05;;;;;;;23.87;100.00;101527.53;5050164;28;20495;-84
2022/06/19 07:18:09;;;;;;;61.00;55.72;;;;;;;24.32;100.00;101521.13;5050255;28;20049;-84
2022/06/19 07:20:36;;;;;;;56.15;51.63;;;;;;;24.22;100.00;101515.75;5051903;28;20544;-85
2022/06/19 07:23:04;;;;;;;52.70;49.20;;;;;;;24.39;100.00;101513.50;5057424;28;20060;-83
2022/06/19 07:25:32;;;;;;;52.90;49.08;;;;;;;24.82;100.00;101523.88;5053949;28;20053;-84
2022/06/19 07:28:00;;;;;;;54.42;50.00;;;;;;;24.96;100.00;101522.13;5051852;28;20052;-83
2022/06/19 07:30:28;;;;;;;57.50;52.85;;;;;;;24.86;100.00;101508.63;5056039;28;20123;-83
2022/06/19 07:32:57;;;;;;;58.47;53.47;;;;;;;25.13;100.00;101514.41;5066905;28;20106;-83
2022/06/19 07:35:29;;;;;;;57.92;52.42;;;;;;;25.23;100.00;101508.09;5063039;28;20401;-83
2022/06/19 07:37:56;;;;;;;59.17;54.15;;;;;;;25.47;100.00;101513.56;5053897;28;20041;-83
2022/06/19 07:40:23;;;;;;;60.92;55.65;;;;;;;25.63;100.00;101505.25;5056361;28;20057;-83
2022/06/19 07:42:51;;;;;;;61.03;55.83;;;;;;;25.70;100.00;101509.28;5057135;28;20466;-82
2022/06/19 07:45:18;;;;;;;61.17;55.90;;;;;;;25.59;100.00;101513.19;5058112;28;20053;-84
2022/06/19 07:50:31;;;;;;;66.10;60.67;;;;;;;25.88;100.00;101496.06;5057189;28;20048;-83
2022/06/19 07:52:57;;;;;;;65.32;59.40;;;;;;;25.86;88.72;101498.25;5062702;28;20079;-84
2022/06/19 07:55:27;;;;;;;59.83;54.45;;;;;;;25.61;93.58;101502.84;5057000;28;20056;-83
2022/06/19 07:58:01;;;;;;;59.53;54.60;;;;;;;25.94;77.04;101490.25;5059437;28;20056;-83
2022/06/19 08:00:32;;;;;;;60.10;55.40;;;;;;;26.01;100.00;101495.34;5056705;28;20045;-84
2022/06/19 08:02:59;;;;;;;60.22;55.53;;;;;;;26.23;94.11;101495.63;5045906;28;20050;-83
2022/06/19 08:05:29;;;;;;;56.28;51.78;;;;;;;26.19;83.47;101494.56;5053435;28;20052;-84
2022/06/19 08:07:59;;;;;;;59.15;54.25;;;;;;;26.20;94.27;101500.81;5065609;28;20068;-83
2022/06/19 08:10:27;;;;;;;58.40;53.75;;;;;;;26.70;91.76;101488.44;5077276;28;20052;-83
2022/06/19 08:12:56;;;;;;;59.28;54.42;;;;;;;26.66;93.96;101489.31;5073141;28;20048;-83
2022/06/19 08:15:24;;;;;;;51.63;47.42;;;;;;;26.53;95.55;101495.50;5060582;28;20401;-84
2022/06/19 08:17:52;;;;;;;56.05;51.65;;;;;;;26.33;95.58;101491.94;5059297;28;20053;-83
2022/06/19 08:20:21;;;;;;;53.03;48.72;;;;;;;26.57;89.79;101482.94;5056760;28;20045;-83
2022/06/19 08:22:48;;;;;;;56.17;51.60;;;;;;;26.43;81.81;101480.91;5052929;28;20060;-82
2022/06/19 08:25:19;;;;;;;62.65;57.55;;;;;;;26.70;80.06;101479.44;5057151;28;20053;-83
2022/06/19 08:27:49;;;;;;;63.03;57.92;;;;;;;26.45;93.06;101486.06;5052555;28;20049;-84
2022/06/19 08:30:20;;;;;;;61.05;56.05;;;;;;;26.92;79.55;101479.63;5056695;28;20041;-83
2022/06/19 08:32:48;;;;;;;62.67;57.55;;;;;;;26.90;87.68;101481.84;5064320;28;20052;-83
2022/06/19 08:35:16;;;;;;;62.85;57.55;;;;;;;27.11;76.61;101473.31;5065329;28;20398;-84
2022/06/19 08:37:45;;;;;;;63.88;58.50;;;;;;;27.13;84.22;101476.56;5056632;28;20041;-82
2022/06/19 08:40:27;;;;;;;63.97;58.70;;;;;;;26.92;93.30;101476.91;5055436;28;20048;-81
2022/06/19 08:43:10;;;;;;;53.40;49.90;;;;;;;26.95;75.91;101475.50;5064668;28;20048;-83
2022/06/19 08:45:45;;;;;;;49.67;46.00;;;;;;;27.07;83.22;101469.56;5054390;28;20052;-82
2022/06/19 08:48:36;;;;;;;47.97;44.92;;;;;;;27.32;71.67;101468.34;5056582;28;20452;-83
2022/06/19 08:51:17;;;;;;;26.20;24.50;;;;;;;27.59;62.96;101473.00;5056510;28;20044;-84
2022/06/19 08:54:11;;;;;;;26.05;24.23;;;;;;;27.42;81.31;101473.63;5054788;28;20482;-84
2022/06/19 08:56:48;;;;;;;26.38;24.35;;;;;;;27.44;65.81;101465.94;5039630;28;20110;-85
2022/06/19 08:59:28;;;;;;;27.85;25.58;;;;;;;27.62;58.86;101473.22;5057904;28;20055;-82
2022/06/19 09:02:04;;;;;;;26.17;24.15;;;;;;;27.46;57.61;101461.00;5060750;28;20110;-85
2022/06/19 09:07:43;;;;;;;26.63;24.92;;;;;;;27.62;77.20;101459.56;5049605;28;20191;-84
2022/06/19 09:10:29;;;;;;;28.60;26.63;;;;;;;27.64;65.63;101454.63;5055059;28;20044;-84
2022/06/19 09:13:26;;;;;;;26.10;24.20;;;;;;;27.88;59.02;101456.38;5059515;28;20056;-83
2022/06/19 09:16:01;;;;;;;26.83;25.02;;;;;;;27.78;66.58;101460.13;5050598;28;20063;-82
2022/06/19 09:18:39;;;;;;;26.75;25.02;;;;;;;27.51;64.79;101455.44;5054787;28;20183;-82
2022/06/19 09:21:10;;;;;;;27.00;25.20;;;;;;;27.99;56.91;101454.22;5055168;28;20458;-82
2022/06/19 09:24:19;;;;;;;25.40;23.70;;;;;;;27.56;51.81;101452.59;5059960;28;20048;-81
2022/06/19 09:26:58;;;;;;;27.13;25.42;;;;;;;27.80;55.14;101451.63;5053975;28;20045;-83
2022/06/19 09:29:35;;;;;;;27.95;26.00;;;;;;;27.89;67.86;101451.72;5046096;28;20052;-82
2022/06/19 09:32:10;;;;;;;27.48;25.70;;;;;;;27.89;64.22;101449.78;5042503;28;20053;-83
2022/06/19 09:34:43;;;;;;;27.00;25.30;;;;;;;27.61;52.34;101441.59;5058045;28;20127;-83
2022/06/19 09:37:19;;;;;;;26.63;24.83;;;;;;;27.89;51.09;101441.59;5051279;28;20049;-85
2022/06/19 09:39:55;;;;;;;27.92;25.50;;;;;;;27.61;65.69;101440.78;5055060;28;20041;-86
2022/06/19 09:42:28;;;;;;;26.00;24.23;;;;;;;28.13;61.78;101435.09;5054201;28;20053;-84
2022/06/19 09:45:03;;;;;;;26.50;24.70;;;;;;;28.16;69.12;101431.75;5049233;28;20056;-83
2022/06/19 09:47:36;;;;;;;25.50;23.70;;;;;;;27.81;52.85;101428.69;5054528;28;20052;-81
2022/06/19 09:50:23;;;;;;;26.80;25.02;;;;;;;28.28;50.86;101424.63;5051068;28;20425;-83
2022/06/19 09:53:01;;;;;;;27.45;25.45;;;;;;;28.25;54.65;101424.44;5053288;28;20464;-85
2022/06/19 09:55:40;;;;;;;26.67;24.88;;;;;;;28.93;70.74;101428.03;5056660;28;20045;-84
2022/06/19 09:58:14;;;;;;;27.10;25.25;;;;;;;28.92;55.85;101423.66;5060619;28;20079;-83
2022/06/19 10:00:48;;;;;;;25.67;23.90;;;;;;;28.91;54.72;101430.25;5055170;28;20411;-82
2022/06/19 10:03:35;;;;;;;;;;;;;;;;;;;;;
2022/06/19 10:06:11;;;;;;;29.77;27.67;;;;;;;28.49;63.18;101418.72;5057880;28;20056;-83
2022/06/19 10:08:47;;;;;;;29.00;27.25;;;;;;;28.98;59.01;101417.72;5060796;28;20041;-84
2022/06/19 10:11:18;;;;;;;28.48;26.48;;;;;;;29.16;60.05;101406.91;5053596;28;20045;-82
2022/06/19 10:13:58;;;;;;;26.70;25.13;;;;;;;28.86;52.42;101414.78;5041866;28;20102;-83
2022/06/19 10:16:33;;;;;;;28.05;26.35;;;;;;;28.64;47.72;101407.41;5052878;28;20057;-83
2022/06/19 10:19:10;;;;;;;27.10;25.50;;;;;;;28.97;63.51;101401.66;5056716;28;20048;-82
2022/06/19 10:24:49;;;;;;;27.15;25.25;;;;;;;28.32;55.95;101392.03;5048637;28;20512;-82
2022/06/19 10:27:32;;;;;;;25.88;24.27;;;;;;;27.91;63.75;101392.97;5050502;28;20136;-83
2022/06/19 10:30:15;;;;;;;28.65;26.85;;;;;;;28.06;57.93;101394.56;5051335;28;20060;-85
2022/06/19 10:32:54;;;;;;;;;;;;;;;28.07;61.51;101391.50;5049075;28;20079;-84
2022/06/19 10:35:31;;;;;;;26.92;25.08;;;;;;;28.90;59.47;101399.38;5060622;28;19920;-86
2022/06/19 10:38:15;;;;;;;27.60;25.73;;;;;;;28.55;59.86;101395.63;5054098;28;20474;-88
2022/06/19 10:40:51;;;;;;;27.58;25.63;;;;;;;28.24;63.24;101390.88;5054340;28;20371;-82
2022/06/19 10:43:34;;;;;;;26.60;24.88;;;;;;;28.88;64.33;101384.41;5050276;28;20087;-85
2022/06/19 10:46:07;;;;;;;25.90;24.05;;;;;;;28.77;53.74;101403.78;5053244;28;20066;-82
2022/06/19 10:48:46;;;;;;;26.58;24.35;;;;;;;29.11;51.80;101386.00;5050431;28;20178;-84
2022/06/19 10:51:31;;;;;;;25.55;23.85;;;;;;;28.95;54.67;101392.97;5055076;28;20738;-84
2022/06/19 10:54:35;;;;;;;27.08;24.90;;;;;;;28.72;63.27;101392.19;5053884;28;20056;-82
2022/06/19 10:57:17;;;;;;;26.05;24.25;;;;;;;28.82;54.10;101388.41;5047446;28;20041;-84
2022/06/19 10:59:44;;;;;;;26.13;24.00;;;;;;;29.00;53.00;101382.69;5051434;28;20053;-82
2022/06/19 11:05:18;;;;;;;24.88;23.17;;;;;;;29.45;53.56;101379.03;5046366;28;20052;-83
2022/06/19 11:07:52;;;;;;;25.65;23.75;;;;;;;29.40;53.05;101377.25;5050246;28;20052;-83
2022/06/19 11:10:36;;;;;;;24.58;22.88;;;;;;;29.69;52.60;101358.69;5050943;28;20474;-83
2022/06/19 11:13:08;;;;;;;25.13;23.10;;;;;;;29.44;51.13;101370.03;5048259;28;20053;-81
2022/06/19 11:15:40;;;;;;;25.17;23.37;;;;;;;29.11;48.40;101376.97;5051648;28;20118;-82
2022/06/19 11:18:13;;;;;;;25.70;23.60;;;;;;;28.95;49.98;101376.56;5057166;28;20334;-85
2022/06/19 11:20:55;;;;;;;24.80;22.90;;;;;;;29.09;50.67;101379.22;5053862;28;20483;-83
2022/06/19 11:23:31;;;;;;;23.95;22.35;;;;;;;29.55;50.74;101376.00;5049112;28;20057;-82
2022/06/19 11:26:09;;;;;;;23.70;22.10;;;;;;;29.44;43.74;101371.94;5053823;28;20049;-83
2022/06/19 11:28:51;;;;;;;23.77;22.08;;;;;;;29.51;49.94;101366.81;5051650;28;20122;-84
2022/06/19 11:31:28;;;;;;;25.20;23.50;;;;;;;29.83;46.75;101357.38;5052539;28;20484;-84
2022/06/19 11:34:43;;;;;;;25.45;23.65;;;;;;;29.18;43.80;101375.41;5056423;28;20045;-83
2022/06/19 11:37:11;;;;;;;23.80;22.20;;;;;;;29.53;51.04;101364.56;5056442;28;20764;-84
2022/06/19 11:39:50;;;;;;;25.48;23.98;;;;;;;29.36;44.29;101370.00;5053647;28;20076;-83